Time;durP1;ratioP1;P1;durP2;ratioP2;P2;SDS_P1;SDS_P2;PMS_P1;PMS_P2;Temp;Humidity;BMP_temperature;BMP_pressure;BME280_temperature;BME280_humidity;BME280_pressure;Samples;Min_cycle;Max_cycle;Signal;HPM_P1;HPM_P2
2022/08/31 00:06:19;;;;;;;7.50;6.90;;;20.40;99.90;;;;;;5097695;28;20570;-75
2022/08/31 00:08:45;;;;;;;7.93;7.00;;;20.40;99.90;;;;;;5098177;28;20638;-77
2022/08/31 00:11:13;;;;;;;6.97;6.40;;;20.20;99.90;;;;;;5097467;28;20609;-76
2022/08/31 00:13:41;;;;;;;6.73;6.17;;;20.20;99.90;;;;;;5096560;28;20624;-76
2022/08/31 00:16:10;;;;;;;8.40;6.30;;;20.10;99.90;;;;;;5096942;28;20573;-76
2022/08/31 00:18:37;;;;;;;6.70;6.03;;;20.00;99.90;;;;;;5095903;28;20624;-76
2022/08/31 00:21:04;;;;;;;6.87;6.30;;;19.90;99.90;;;;;;5096609;28;20608;-74
2022/08/31 00:23:31;;;;;;;9.30;6.40;;;19.90;99.90;;;;;;5096552;28;20562;-74
2022/08/31 00:25:58;;;;;;;8.73;6.40;;;19.80;99.90;;;;;;5095979;28;20997;-74
2022/08/31 00:28:25;;;;;;;6.47;6.00;;;19.80;99.90;;;;;;5077650;28;20613;-74
2022/08/31 00:30:51;;;;;;;6.17;5.57;;;19.80;99.90;;;;;;5095880;28;20639;-74
2022/08/31 00:33:18;;;;;;;6.50;5.50;;;19.80;99.90;;;;;;5095862;28;21103;-75
2022/08/31 00:35:44;;;;;;;8.70;6.83;;;19.80;99.90;;;;;;5095963;28;20623;-75
2022/08/31 00:38:11;;;;;;;7.83;5.77;;;19.80;99.90;;;;;;5095583;28;20618;-75
2022/08/31 00:40:38;;;;;;;7.33;6.60;;;19.70;99.90;;;;;;5095841;28;21000;-75
2022/08/31 00:43:04;;;;;;;7.40;6.17;;;19.70;99.90;;;;;;5095420;28;20574;-75
2022/08/31 00:45:31;;;;;;;6.30;5.77;;;19.70;99.90;;;;;;5095007;28;21053;-75
2022/08/31 00:47:57;;;;;;;7.03;6.43;;;19.60;99.90;;;;;;5095847;28;20641;-75
2022/08/31 00:50:24;;;;;;;6.93;6.33;;;19.60;99.90;;;;;;5096079;28;20581;-75
2022/08/31 00:52:59;;;;;;;7.37;6.67;;;19.60;99.90;;;;;;5095647;28;21182;-76
2022/08/31 00:55:32;;;;;;;7.50;6.80;;;19.50;99.90;;;;;;5077853;28;20638;-74
2022/08/31 00:58:03;;;;;;;7.60;6.63;;;19.50;99.90;;;;;;5095526;28;20643;-74
2022/08/31 01:00:30;;;;;;;7.80;7.10;;;19.60;99.90;;;;;;5095564;28;20670;-71
2022/08/31 01:03:00;;;;;;;7.30;6.70;;;19.50;99.90;;;;;;5094187;28;20598;-71
2022/08/31 01:05:28;;;;;;;6.90;6.30;;;19.50;99.90;;;;;;5076562;28;20558;-71
2022/08/31 01:07:55;;;;;;;7.60;6.90;;;19.40;99.90;;;;;;5093874;28;20580;-72
2022/08/31 01:10:26;;;;;;;7.60;6.50;;;19.40;99.90;;;;;;5075832;28;20932;-72
2022/08/31 01:12:55;;;;;;;6.93;6.17;;;19.50;99.90;;;;;;5094284;28;20593;-72
2022/08/31 01:15:23;;;;;;;7.10;6.37;;;19.50;99.90;;;;;;5075585;28;20613;-72
2022/08/31 01:17:52;;;;;;;9.00;6.60;;;19.50;99.90;;;;;;5093594;28;20621;-72
2022/08/31 01:20:34;;;;;;;7.60;6.87;;;19.40;99.90;;;;;;5094431;28;20577;-72
2022/08/31 01:23:25;;;;;;;6.73;6.13;;;19.40;99.90;;;;;;5094033;28;20586;-72
2022/08/31 01:25:55;;;;;;;6.47;6.00;;;19.40;99.90;;;;;;5076310;28;20565;-72
2022/08/31 01:28:22;;;;;;;6.90;6.30;;;19.50;99.90;;;;;;5094175;28;20570;-72
2022/08/31 01:31:04;;;;;;;5.97;5.37;;;19.40;99.90;;;;;;5094252;28;20954;-72
2022/08/31 01:33:32;;;;;;;5.83;5.40;;;19.50;99.90;;;;;;5093771;28;20621;-72
2022/08/31 01:35:59;;;;;;;5.90;5.40;;;19.50;99.90;;;;;;5076101;28;20573;-72
2022/08/31 01:38:27;;;;;;;5.67;5.27;;;19.40;99.90;;;;;;5094255;28;20906;-72
2022/08/31 01:40:57;;;;;;;5.90;5.40;;;19.40;99.90;;;;;;5093818;28;20633;-72
2022/08/31 01:43:24;;;;;;;5.77;5.37;;;19.40;99.90;;;;;;5093910;28;20573;-72
2022/08/31 01:45:51;;;;;;;6.10;5.70;;;19.40;99.90;;;;;;5094410;28;20623;-72
2022/08/31 01:48:18;;;;;;;5.50;5.00;;;19.50;99.90;;;;;;5093522;28;21237;-72
2022/08/31 01:50:45;;;;;;;5.87;5.40;;;19.50;99.90;;;;;;5094195;28;20920;-72
2022/08/31 01:53:12;;;;;;;6.17;5.67;;;19.40;99.90;;;;;;5094221;28;20586;-72
2022/08/31 01:55:39;;;;;;;6.57;5.97;;;19.40;99.90;;;;;;5094717;28;20638;-72
2022/08/31 01:58:06;;;;;;;5.00;4.70;;;19.40;99.90;;;;;;5093394;28;21156;-72
2022/08/31 02:00:33;;;;;;;5.40;5.00;;;19.40;99.90;;;;;;5093895;28;20935;-72
2022/08/31 02:03:02;;;;;;;5.50;5.10;;;19.40;99.90;;;;;;5094336;28;20582;-71
2022/08/31 02:05:28;;;;;;;5.67;5.20;;;19.40;99.90;;;;;;5093884;28;20578;-71
2022/08/31 02:07:56;;;;;;;6.53;6.00;;;19.40;99.90;;;;;;5093413;28;20604;-72
2022/08/31 02:10:23;;;;;;;6.03;5.30;;;19.50;99.90;;;;;;5093412;28;20590;-72
2022/08/31 02:12:50;;;;;;;6.90;6.30;;;19.40;99.90;;;;;;5093640;28;20589;-71
2022/08/31 02:15:17;;;;;;;6.10;5.60;;;19.40;99.90;;;;;;5076082;28;20574;-72
2022/08/31 02:17:44;;;;;;;6.43;6.00;;;19.40;99.90;;;;;;5093759;28;20576;-72
2022/08/31 02:20:13;;;;;;;6.30;5.80;;;19.40;99.90;;;;;;5093513;28;21165;-72
2022/08/31 02:22:40;;;;;;;5.60;5.27;;;19.50;99.90;;;;;;5094959;28;20641;-72
2022/08/31 02:25:07;;;;;;;6.60;6.00;;;19.40;99.90;;;;;;5097228;28;21207;-72
2022/08/31 02:27:35;;;;;;;6.27;5.80;;;19.30;99.90;;;;;;5097411;28;20577;-71
2022/08/31 02:30:08;;;;;;;5.83;5.23;;;19.30;99.90;;;;;;5096924;28;20632;-72
2022/08/31 02:32:35;;;;;;;5.37;5.07;;;19.40;99.90;;;;;;5097230;28;20632;-72
2022/08/31 02:35:01;;;;;;;5.70;5.30;;;19.50;99.90;;;;;;5097509;28;20592;-72
2022/08/31 02:37:28;;;;;;;5.60;5.20;;;19.50;99.90;;;;;;5097220;28;21011;-72
2022/08/31 02:39:54;;;;;;;5.53;5.20;;;19.50;99.90;;;;;;5078727;28;20682;-72
2022/08/31 02:42:21;;;;;;;6.97;5.67;;;19.60;99.90;;;;;;5096958;28;20661;-71
2022/08/31 02:44:47;;;;;;;6.67;6.10;;;19.60;99.90;;;;;;5097114;28;20578;-72
2022/08/31 02:47:13;;;;;;;6.90;6.20;;;19.60;99.90;;;;;;5097022;28;20573;-71
2022/08/31 02:49:40;;;;;;;8.43;6.43;;;19.60;99.90;;;;;;5096372;28;20652;-72
2022/08/31 02:52:07;;;;;;;5.73;5.33;;;19.60;99.90;;;;;;5094857;28;20625;-72
2022/08/31 02:54:33;;;;;;;5.60;5.10;;;19.50;99.90;;;;;;5078870;28;20577;-71
2022/08/31 02:57:01;;;;;;;8.73;5.53;;;19.50;99.90;;;;;;5096678;28;20565;-72
2022/08/31 02:59:28;;;;;;;4.97;4.60;;;19.60;99.90;;;;;;5096815;28;20578;-72
2022/08/31 03:01:54;;;;;;;5.70;5.20;;;19.60;99.90;;;;;;5096983;28;20633;-72
2022/08/31 03:04:21;;;;;;;5.47;5.07;;;19.70;99.90;;;;;;5095970;28;20620;-72
2022/08/31 03:06:48;;;;;;;6.03;5.53;;;19.70;99.90;;;;;;5096820;28;20577;-72
2022/08/31 03:09:15;;;;;;;6.57;5.57;;;19.70;99.90;;;;;;5096135;28;20966;-72
2022/08/31 03:11:41;;;;;;;5.80;5.40;;;19.70;99.90;;;;;;5077887;28;20712;-72
2022/08/31 03:14:08;;;;;;;6.00;5.50;;;19.70;99.90;;;;;;5096034;28;20954;-72
2022/08/31 03:16:34;;;;;;;5.83;5.43;;;19.70;99.90;;;;;;5096208;28;20643;-72
2022/08/31 03:19:01;;;;;;;7.20;6.50;;;19.70;99.90;;;;;;5095496;28;20687;-72
2022/08/31 03:21:27;;;;;;;6.60;6.10;;;19.70;99.90;;;;;;5095756;28;20754;-72
2022/08/31 03:23:54;;;;;;;7.63;6.03;;;19.70;99.90;;;;;;5096311;28;20629;-72
2022/08/31 03:26:20;;;;;;;7.63;6.90;;;19.70;99.90;;;;;;5096276;28;20577;-72
2022/08/31 03:28:47;;;;;;;6.93;6.33;;;19.70;99.90;;;;;;5096878;28;20609;-72
2022/08/31 03:31:13;;;;;;;7.17;6.53;;;19.60;99.90;;;;;;5096128;28;20574;-72
2022/08/31 03:33:40;;;;;;;7.50;6.90;;;19.50;99.90;;;;;;5095100;28;20619;-72
2022/08/31 03:36:06;;;;;;;7.80;7.10;;;19.50;99.90;;;;;;5078053;28;20625;-72
2022/08/31 03:38:33;;;;;;;9.40;8.13;;;19.50;99.90;;;;;;5077941;28;21235;-72
2022/08/31 03:41:01;;;;;;;8.03;7.30;;;19.50;99.90;;;;;;5096099;28;20577;-72
2022/08/31 03:43:27;;;;;;;10.10;7.37;;;19.50;99.90;;;;;;5095855;28;20608;-72
2022/08/31 03:45:54;;;;;;;7.63;6.80;;;19.50;99.90;;;;;;5096229;28;20546;-72
2022/08/31 03:48:20;;;;;;;7.87;7.27;;;19.60;99.90;;;;;;5095581;28;20645;-72
2022/08/31 03:50:46;;;;;;;8.93;6.90;;;19.60;99.90;;;;;;5095989;28;20581;-72
2022/08/31 03:53:13;;;;;;;6.27;5.77;;;19.50;99.90;;;;;;5093818;28;20625;-72
2022/08/31 03:55:42;;;;;;;4.80;4.33;;;19.60;99.90;;;;;;5095648;28;20625;-72
2022/08/31 03:58:09;;;;;;;4.97;4.67;;;19.60;99.90;;;;;;5095962;28;20696;-72
2022/08/31 04:00:36;;;;;;;5.93;5.50;;;19.70;99.90;;;;;;5095136;28;20577;-72
2022/08/31 04:03:03;;;;;;;6.40;5.67;;;19.70;99.90;;;;;;5095606;28;20984;-72
2022/08/31 04:05:32;;;;;;;7.07;6.40;;;19.80;99.90;;;;;;5093486;28;20632;-72
2022/08/31 04:07:59;;;;;;;6.70;6.00;;;19.80;99.90;;;;;;5095682;28;20643;-72
2022/08/31 04:10:25;;;;;;;8.70;6.80;;;19.80;99.90;;;;;;5077494;28;20667;-72
2022/08/31 04:12:52;;;;;;;7.40;5.63;;;19.90;99.90;;;;;;5095375;28;20574;-72
2022/08/31 04:15:18;;;;;;;6.43;5.93;;;19.90;99.90;;;;;;5094913;28;20582;-72
2022/08/31 04:17:46;;;;;;;7.33;6.00;;;19.90;99.90;;;;;;5095416;28;20658;-72
2022/08/31 04:20:12;;;;;;;6.70;5.90;;;19.90;99.90;;;;;;5095242;28;21232;-72
2022/08/31 04:22:40;;;;;;;6.77;6.27;;;19.90;99.90;;;;;;5094677;28;20988;-72
2022/08/31 04:25:09;;;;;;;8.90;5.83;;;19.90;99.90;;;;;;5094916;28;20633;-72
2022/08/31 04:27:37;;;;;;;6.27;5.67;;;19.90;99.90;;;;;;5094534;28;20625;-71
2022/08/31 04:30:07;;;;;;;5.53;5.13;;;19.80;99.90;;;;;;5094576;28;20570;-72
2022/08/31 04:32:34;;;;;;;6.27;5.67;;;19.80;99.90;;;;;;5094624;28;20628;-72
2022/08/31 04:35:03;;;;;;;6.27;5.67;;;19.70;99.90;;;;;;5094287;28;21160;-72
2022/08/31 04:37:30;;;;;;;6.07;5.60;;;19.70;99.90;;;;;;5093890;28;20622;-72
2022/08/31 04:39:57;;;;;;;6.60;6.10;;;19.70;99.90;;;;;;5094802;28;20932;-72
2022/08/31 04:42:23;;;;;;;9.80;7.40;;;19.70;99.90;;;;;;5093737;28;20661;-72
2022/08/31 04:44:50;;;;;;;8.27;7.47;;;19.70;99.90;;;;;;5094901;28;20906;-72
2022/08/31 04:47:17;;;;;;;7.83;7.23;;;19.60;99.90;;;;;;5093582;28;20978;-72
2022/08/31 04:49:43;;;;;;;8.30;7.50;;;19.60;99.90;;;;;;5094479;28;20641;-72
2022/08/31 04:52:10;;;;;;;7.77;7.17;;;19.60;99.90;;;;;;5094584;28;20578;-72
2022/08/31 04:54:36;;;;;;;8.57;7.57;;;19.60;99.90;;;;;;5094523;28;20560;-72
2022/08/31 04:57:03;;;;;;;8.90;8.10;;;19.60;99.90;;;;;;5077149;28;20624;-72
2022/08/31 04:59:30;;;;;;;7.90;7.30;;;19.60;99.90;;;;;;5094772;28;20609;-72
2022/08/31 05:01:57;;;;;;;8.43;7.63;;;19.50;99.90;;;;;;5076420;28;20673;-72
2022/08/31 05:04:24;;;;;;;9.17;8.27;;;19.40;99.90;;;;;;5076503;28;20620;-72
2022/08/31 05:06:51;;;;;;;9.77;7.07;;;19.40;99.90;;;;;;5076668;28;20544;-72
2022/08/31 05:09:21;;;;;;;9.63;7.87;;;19.30;99.90;;;;;;5094443;28;20580;-72
2022/08/31 05:11:49;;;;;;;7.33;6.77;;;19.30;99.90;;;;;;5094339;28;20935;-72
2022/08/31 05:14:16;;;;;;;8.90;8.00;;;19.20;99.90;;;;;;5094782;28;20628;-72
2022/08/31 05:16:43;;;;;;;8.50;7.80;;;19.20;99.90;;;;;;5094532;28;20689;-72
2022/08/31 05:19:10;;;;;;;12.87;7.93;;;19.10;99.90;;;;;;5094027;28;20614;-72
2022/08/31 05:21:38;;;;;;;14.07;8.13;;;19.00;99.90;;;;;;5094034;28;20982;-72
2022/08/31 05:24:08;;;;;;;7.87;7.07;;;19.00;99.90;;;;;;5092728;28;20642;-72
2022/08/31 05:26:43;;;;;;;8.30;6.67;;;18.90;99.90;;;;;;5094220;28;20578;-72
2022/08/31 05:29:13;;;;;;;8.40;7.70;;;19.00;99.90;;;;;;5093346;28;20643;-72
2022/08/31 05:31:41;;;;;;;8.40;7.77;;;19.10;99.90;;;;;;5093702;28;20939;-72
2022/08/31 05:34:07;;;;;;;9.07;7.93;;;19.10;99.90;;;;;;5093712;28;21147;-72
2022/08/31 05:36:34;;;;;;;14.10;10.00;;;19.20;99.90;;;;;;5094370;28;20936;-72
2022/08/31 05:39:01;;;;;;;19.03;15.60;;;19.30;99.90;;;;;;5094629;28;20636;-73
2022/08/31 05:41:28;;;;;;;12.33;10.63;;;19.40;99.90;;;;;;5075734;28;20631;-73
2022/08/31 05:43:55;;;;;;;11.20;10.10;;;19.30;99.90;;;;;;5076249;28;20614;-72
2022/08/31 05:46:22;;;;;;;13.87;11.60;;;19.40;99.90;;;;;;5094898;28;20570;-73
2022/08/31 05:48:48;;;;;;;18.70;11.97;;;19.40;99.90;;;;;;5093499;28;21074;-70
2022/08/31 05:51:16;;;;;;;9.13;8.33;;;19.40;99.90;;;;;;5075720;28;20613;-71
2022/08/31 05:53:43;;;;;;;9.93;9.03;;;19.40;99.90;;;;;;5075355;28;21172;-71
2022/08/31 05:56:12;;;;;;;11.13;10.13;;;19.50;99.90;;;;;;5093876;28;21079;-70
2022/08/31 05:58:41;;;;;;;9.73;8.83;;;19.50;99.90;;;;;;5078369;28;20624;-70
2022/08/31 06:01:20;;;;;;;14.20;10.77;;;19.50;99.90;;;;;;5097552;28;20577;-71
2022/08/31 06:03:47;;;;;;;11.33;10.13;;;19.70;99.90;;;;;;5097641;28;20632;-71
2022/08/31 06:06:16;;;;;;;11.00;10.00;;;19.70;99.90;;;;;;5097454;28;20589;-72
2022/08/31 06:08:43;;;;;;;10.30;9.27;;;19.70;99.90;;;;;;5078875;28;20613;-71
2022/08/31 06:11:16;;;;;;;9.10;8.00;;;19.70;99.90;;;;;;5079327;28;20573;-70
2022/08/31 06:13:43;;;;;;;8.17;7.57;;;19.80;99.90;;;;;;5096313;28;20636;-70
2022/08/31 06:16:09;;;;;;;9.67;8.27;;;19.80;99.90;;;;;;5078301;28;20621;-70
2022/08/31 06:18:39;;;;;;;9.60;8.60;;;19.80;99.90;;;;;;5096387;28;21191;-69
2022/08/31 06:21:11;;;;;;;9.33;8.43;;;19.80;99.90;;;;;;5078643;28;20613;-69
2022/08/31 06:23:41;;;;;;;9.00;8.10;;;19.80;99.90;;;;;;5096302;28;20668;-69
2022/08/31 06:26:14;;;;;;;11.67;9.03;;;19.90;99.90;;;;;;5095950;28;20606;-69
2022/08/31 06:28:42;;;;;;;8.73;7.93;;;19.90;99.90;;;;;;5096364;28;20632;-69
2022/08/31 06:31:22;;;;;;;8.70;7.47;;;19.90;99.90;;;;;;5096350;28;20670;-70
2022/08/31 06:33:50;;;;;;;8.30;7.50;;;19.90;99.90;;;;;;5096862;28;20580;-69
2022/08/31 06:36:19;;;;;;;8.53;7.83;;;19.90;99.90;;;;;;5096728;28;20674;-70
2022/08/31 06:38:46;;;;;;;11.80;7.50;;;20.00;99.90;;;;;;5097148;28;20585;-70
2022/08/31 06:41:16;;;;;;;7.10;6.50;;;20.10;99.90;;;;;;5096463;28;20584;-70
2022/08/31 06:43:44;;;;;;;7.90;7.20;;;20.00;99.90;;;;;;5096538;28;20634;-71
2022/08/31 06:46:11;;;;;;;7.40;6.70;;;20.10;99.90;;;;;;5096278;28;21177;-70
2022/08/31 06:48:38;;;;;;;9.43;6.70;;;20.10;99.90;;;;;;5096652;28;21058;-69
2022/08/31 06:51:05;;;;;;;9.53;6.20;;;20.20;99.90;;;;;;5096785;28;20573;-69
2022/08/31 06:53:34;;;;;;;6.37;5.77;;;20.20;99.90;;;;;;5096237;28;20577;-69
2022/08/31 06:56:05;;;;;;;6.30;5.80;;;20.20;99.90;;;;;;5095562;28;20625;-69
2022/08/31 06:58:32;;;;;;;11.43;5.47;;;20.20;99.90;;;;;;5096011;28;20588;-69
2022/08/31 07:01:10;;;;;;;8.50;6.50;;;20.30;99.90;;;;;;5096042;28;20593;-69
2022/08/31 07:03:38;;;;;;;6.33;5.73;;;20.30;99.90;;;;;;5095839;28;21199;-69
2022/08/31 07:06:10;;;;;;;6.57;5.97;;;20.30;99.90;;;;;;5095658;28;20617;-69
2022/08/31 07:08:41;;;;;;;8.33;5.80;;;20.30;99.90;;;;;;5094983;28;20580;-69
2022/08/31 07:11:16;;;;;;;7.57;6.57;;;20.30;99.90;;;;;;5095460;28;20952;-69
2022/08/31 07:13:42;;;;;;;7.27;5.73;;;20.40;99.90;;;;;;5077234;28;20623;-69
2022/08/31 07:16:12;;;;;;;7.40;4.73;;;20.50;99.90;;;;;;5095836;28;20641;-69
2022/08/31 07:18:40;;;;;;;9.37;4.57;;;20.60;99.90;;;;;;5095622;28;20574;-68
2022/08/31 07:21:16;;;;;;;5.77;4.77;;;20.60;99.90;;;;;;5095498;28;20581;-70
2022/08/31 07:23:44;;;;;;;5.07;4.40;;;20.70;99.90;;;;;;5094668;28;20673;-68
2022/08/31 07:26:15;;;;;;;7.27;4.03;;;20.80;99.90;;;;;;5095331;28;20949;-68
2022/08/31 07:28:42;;;;;;;4.93;4.47;;;20.80;99.90;;;;;;5094927;28;20609;-68
2022/08/31 07:31:10;;;;;;;5.93;4.33;;;20.90;99.90;;;;;;5077289;28;20617;-68
2022/08/31 07:33:37;;;;;;;4.20;3.90;;;21.00;99.90;;;;;;5095803;28;20582;-69
2022/08/31 07:36:06;;;;;;;13.47;4.37;;;20.90;99.90;;;;;;5095054;28;20644;-68
2022/08/31 07:44:05;;;;;;;4.83;4.43;;;21.00;99.90;;;;;;5095819;28;20628;-69
2022/08/31 07:46:32;;;;;;;5.10;3.93;;;21.00;99.90;;;;;;5077032;28;20616;-69
2022/08/31 07:48:58;;;;;;;9.10;4.83;;;21.10;99.90;;;;;;5095464;28;20641;-69
2022/08/31 07:51:26;;;;;;;4.63;4.20;;;20.90;99.90;;;;;;5095037;28;20574;-69
2022/08/31 07:53:54;;;;;;;4.87;4.33;;;21.00;99.90;;;;;;5077518;28;21189;-69
2022/08/31 07:56:22;;;;;;;6.33;4.40;;;20.90;99.90;;;;;;5095532;28;20582;-69
2022/08/31 07:58:48;;;;;;;4.63;4.33;;;20.90;99.90;;;;;;5076865;28;21180;-69
2022/08/31 08:01:16;;;;;;;6.30;3.97;;;20.90;99.90;;;;;;5095170;28;20570;-69
2022/08/31 08:03:43;;;;;;;5.90;5.13;;;21.10;99.90;;;;;;5094854;28;20629;-69
2022/08/31 08:06:11;;;;;;;7.00;4.50;;;20.90;99.90;;;;;;5094832;28;20712;-70
2022/08/31 08:08:39;;;;;;;5.67;4.20;;;20.80;99.90;;;;;;5094939;28;20935;-70
2022/08/31 08:11:06;;;;;;;5.77;4.67;;;20.60;99.90;;;;;;5094660;28;20618;-68
2022/08/31 08:13:32;;;;;;;9.63;4.33;;;20.80;99.90;;;;;;5095018;28;20612;-68
2022/08/31 08:15:59;;;;;;;5.30;3.73;;;20.90;99.90;;;;;;5095038;28;20613;-68
2022/08/31 08:18:25;;;;;;;4.57;4.10;;;21.10;99.90;;;;;;5095241;28;20593;-68
2022/08/31 08:20:51;;;;;;;5.93;4.83;;;21.30;99.90;;;;;;5076369;28;20633;-68
2022/08/31 08:23:18;;;;;;;7.70;5.10;;;21.30;99.90;;;;;;5077145;28;20628;-68
2022/08/31 08:25:46;;;;;;;5.43;4.60;;;21.60;99.90;;;;;;5093885;28;20743;-68
2022/08/31 08:28:16;;;;;;;8.43;4.87;;;21.80;99.90;;;;;;5094109;28;20618;-69
2022/08/31 08:30:44;;;;;;;7.27;4.37;;;21.70;99.90;;;;;;5093649;28;20616;-72
2022/08/31 08:33:12;;;;;;;12.40;5.30;;;21.50;99.90;;;;;;5094934;28;20570;-70
2022/08/31 08:35:39;;;;;;;6.00;4.70;;;21.50;99.90;;;;;;5094624;28;20678;-68
2022/08/31 08:38:06;;;;;;;7.57;4.57;;;21.60;99.90;;;;;;5094660;28;20574;-67
2022/08/31 08:40:41;;;;;;;9.60;4.67;;;21.50;99.90;;;;;;5094710;28;20585;-68
2022/08/31 08:43:11;;;;;;;5.90;5.27;;;21.70;99.90;;;;;;5094106;28;21257;-68
2022/08/31 08:45:39;;;;;;;5.30;4.90;;;21.80;99.90;;;;;;5094559;28;20566;-69
2022/08/31 08:48:08;;;;;;;7.43;4.77;;;21.70;99.90;;;;;;5076250;28;20645;-68
2022/08/31 08:50:38;;;;;;;6.33;5.70;;;21.70;99.90;;;;;;5093725;28;20617;-69
2022/08/31 08:53:09;;;;;;;5.77;5.20;;;22.00;99.90;;;;;;5094268;28;20584;-69
2022/08/31 08:55:39;;;;;;;5.80;5.30;;;21.80;99.90;;;;;;5093728;28;20683;-69
2022/08/31 08:58:09;;;;;;;5.63;4.70;;;22.00;99.90;;;;;;5093378;28;20636;-74
2022/08/31 09:00:37;;;;;;;10.03;4.90;;;22.20;99.90;;;;;;5076328;28;20574;-74
2022/08/31 09:03:19;;;;;;;5.97;5.47;;;22.40;99.90;;;;;;5094174;28;20641;-73
2022/08/31 09:06:23;;;;;;;12.70;5.80;;;22.20;99.90;;;;;;5093151;28;21026;-74
2022/08/31 09:09:07;;;;;;;6.17;5.50;;;22.20;99.90;;;;;;5094167;28;20580;-74
2022/08/31 09:11:53;;;;;;;7.13;6.43;;;22.20;99.90;;;;;;5093000;28;20674;-74
2022/08/31 09:14:51;;;;;;;6.70;6.10;;;22.40;99.90;;;;;;5093580;28;21142;-72
2022/08/31 09:17:57;;;;;;;8.10;6.20;;;22.40;99.90;;;;;;5094106;28;20578;-73
2022/08/31 09:20:26;;;;;;;11.67;7.80;;;22.10;99.90;;;;;;5094008;28;20580;-74
2022/08/31 09:22:55;;;;;;;7.97;6.50;;;22.00;99.90;;;;;;5093287;28;20722;-75
2022/08/31 09:25:31;;;;;;;8.90;7.20;;;21.90;99.90;;;;;;5092908;28;20641;-74
2022/08/31 09:28:02;;;;;;;8.80;8.03;;;21.80;99.90;;;;;;5093854;28;20580;-74
2022/08/31 09:30:50;;;;;;;10.60;8.33;;;21.60;99.90;;;;;;5094006;28;20581;-73
2022/08/31 09:33:22;;;;;;;10.47;8.73;;;21.60;99.90;;;;;;5074723;28;20640;-73
2022/08/31 09:35:55;;;;;;;8.80;7.87;;;21.60;99.90;;;;;;5093986;28;20574;-74
2022/08/31 09:38:29;;;;;;;11.37;7.93;;;21.60;99.90;;;;;;5093331;28;20600;-74
2022/08/31 09:40:56;;;;;;;9.73;8.73;;;21.50;99.90;;;;;;5093977;28;20569;-73
2022/08/31 09:43:23;;;;;;;9.20;8.10;;;21.70;99.90;;;;;;5093722;28;20644;-74
2022/08/31 09:46:26;;;;;;;9.20;8.33;;;21.70;99.90;;;;;;5093187;28;20614;-74
2022/08/31 09:48:57;;;;;;;10.87;9.77;;;21.60;99.90;;;;;;5092407;28;20664;-74
2022/08/31 09:51:28;;;;;;;15.00;9.73;;;21.20;99.90;;;;;;5093190;28;20629;-74
2022/08/31 09:56:56;;;;;;;18.47;10.10;;;21.30;99.90;;;;;;5093801;28;20588;-72
2022/08/31 09:59:38;;;;;;;10.80;9.80;;;21.20;99.90;;;;;;5094181;28;20616;-72
2022/08/31 10:02:27;;;;;;;12.10;10.07;;;20.90;99.90;;;;;;5075362;28;21002;-72
2022/08/31 10:04:59;;;;;;;11.50;10.03;;;20.90;99.90;;;;;;5093091;28;20659;-71
2022/08/31 10:07:42;;;;;;;14.50;10.67;;;20.60;99.90;;;;;;5094450;28;20583;-73
2022/08/31 10:10:25;;;;;;;11.53;10.17;;;20.40;99.90;;;;;;5094163;28;20577;-72
2022/08/31 10:13:03;;;;;;;14.47;12.97;;;20.40;99.90;;;;;;5093578;28;20578;-72
2022/08/31 10:15:38;;;;;;;9.83;8.63;;;20.40;99.90;;;;;;5093134;28;21186;-72
2022/08/31 10:18:16;;;;;;;9.60;8.60;;;20.20;99.90;;;;;;5092731;28;20627;-72
2022/08/31 10:21:06;;;;;;;9.27;8.47;;;20.10;99.90;;;;;;5093510;28;20647;-72
2022/08/31 10:23:40;;;;;;;10.60;8.50;;;20.20;99.90;;;;;;5092936;28;21235;-70
2022/08/31 10:26:15;;;;;;;7.80;7.10;;;20.30;99.90;;;;;;5093909;28;20577;-73
2022/08/31 10:28:50;;;;;;;7.50;6.80;;;20.40;99.90;;;;;;5093301;28;20568;-70
2022/08/31 10:31:28;;;;;;;8.43;7.67;;;20.40;99.90;;;;;;5094728;28;20598;-71
2022/08/31 10:37:08;;;;;;;8.83;8.03;;;20.60;99.90;;;;;;5093360;28;20578;-71
2022/08/31 10:39:46;;;;;;;10.03;7.90;;;20.50;99.90;;;;;;5092457;28;20628;-71
2022/08/31 10:42:28;;;;;;;8.00;7.40;;;20.40;99.90;;;;;;5074845;28;20617;-71
2022/08/31 10:45:03;;;;;;;8.50;6.80;;;20.30;99.90;;;;;;5094885;28;20969;-71
2022/08/31 10:47:30;;;;;;;7.17;6.10;;;20.20;99.90;;;;;;5096461;28;20620;-71
2022/08/31 10:49:58;;;;;;;8.07;7.27;;;20.10;99.90;;;;;;5097128;28;20680;-71
2022/08/31 10:52:33;;;;;;;6.90;6.20;;;20.00;99.90;;;;;;5096911;28;20603;-71
2022/08/31 10:55:22;;;;;;;8.30;6.30;;;20.10;99.90;;;;;;5096527;28;20573;-70
2022/08/31 10:57:55;;;;;;;4.77;4.37;;;20.10;99.90;;;;;;5096712;28;20617;-70
2022/08/31 11:00:44;;;;;;;5.57;5.17;;;19.90;99.90;;;;;;5096769;28;20585;-70
2022/08/31 11:03:21;;;;;;;5.30;4.80;;;19.60;99.90;;;;;;5096061;28;20664;-73
2022/08/31 11:06:09;;;;;;;5.60;4.33;;;19.50;99.90;;;;;;5078238;28;20588;-72
2022/08/31 11:09:21;;;;;;;4.77;4.20;;;19.60;99.90;;;;;;5096565;28;20690;-71
2022/08/31 11:12:03;;;;;;;8.27;5.10;;;19.70;99.90;;;;;;5079317;28;20632;-72
2022/08/31 11:15:01;;;;;;;4.30;3.67;;;19.60;99.90;;;;;;5095655;28;21187;-71
2022/08/31 11:17:34;;;;;;;4.20;3.93;;;19.60;99.90;;;;;;5096006;28;20675;-73
2022/08/31 11:20:13;;;;;;;4.23;4.03;;;19.50;99.90;;;;;;5096597;28;20656;-71
2022/08/31 11:23:07;;;;;;;4.13;3.83;;;19.60;99.90;;;;;;5096781;28;20631;-73
2022/08/31 11:26:05;;;;;;;4.00;3.70;;;19.70;99.90;;;;;;5096586;28;20666;-73
2022/08/31 11:28:38;;;;;;;4.53;4.23;;;19.60;99.90;;;;;;5096980;28;20569;-71
2022/08/31 11:31:22;;;;;;;5.90;5.30;;;19.50;99.90;;;;;;5078560;28;21183;-73
2022/08/31 11:33:59;;;;;;;5.60;5.20;;;19.60;99.90;;;;;;5096997;28;20613;-71
2022/08/31 11:36:46;;;;;;;6.30;5.70;;;19.70;99.90;;;;;;5096843;28;20621;-71
2022/08/31 11:39:14;;;;;;;5.87;5.37;;;19.60;99.90;;;;;;5096185;28;20724;-72
2022/08/31 11:41:46;;;;;;;6.87;6.27;;;19.70;99.90;;;;;;5095649;28;21171;-71
2022/08/31 11:44:32;;;;;;;6.47;5.97;;;19.60;99.90;;;;;;5095241;28;20665;-71
2022/08/31 11:47:27;;;;;;;6.43;5.80;;;19.40;99.90;;;;;;5095929;28;20661;-72
2022/08/31 11:50:22;;;;;;;6.43;5.47;;;19.40;99.90;;;;;;5075344;28;20594;-72
2022/08/31 11:52:52;;;;;;;8.23;5.10;;;19.40;99.90;;;;;;5073844;28;20622;-72
2022/08/31 11:55:47;;;;;;;5.43;5.03;;;19.20;99.90;;;;;;5074709;28;20574;-71
2022/08/31 11:58:24;;;;;;;4.83;4.43;;;19.30;99.90;;;;;;5074340;28;20641;-71
2022/08/31 12:00:57;;;;;;;4.37;4.03;;;19.20;99.90;;;;;;5056656;28;20621;-71
2022/08/31 12:03:51;;;;;;;5.20;4.63;;;19.30;99.90;;;;;;5074231;28;20657;-72
2022/08/31 12:06:24;;;;;;;4.90;4.23;;;19.30;99.90;;;;;;5074333;28;20619;-71
2022/08/31 12:08:55;;;;;;;5.30;4.90;;;19.40;99.90;;;;;;5074704;28;20996;-71
2022/08/31 12:11:36;;;;;;;4.50;4.20;;;19.20;99.90;;;;;;5074179;28;20614;-71
2022/08/31 12:14:20;;;;;;;4.77;4.37;;;19.10;99.90;;;;;;5074574;28;20586;-71
2022/08/31 12:17:08;;;;;;;4.80;4.40;;;19.30;99.90;;;;;;5074362;28;20578;-71
2022/08/31 12:20:00;;;;;;;4.93;4.53;;;19.40;99.90;;;;;;5074700;28;20598;-71
2022/08/31 12:23:37;;;;;;;5.40;4.97;;;19.30;99.90;;;;;;5074233;28;20625;-71
2022/08/31 12:26:14;;;;;;;4.57;4.17;;;19.30;99.90;;;;;;4992760;28;20998;-72
2022/08/31 12:29:18;;;;;;;5.13;4.50;;;19.50;99.90;;;;;;5073025;28;20617;-72
2022/08/31 12:32:06;;;;;;;5.43;4.33;;;19.50;99.90;;;;;;5056327;28;20626;-72
2022/08/31 12:34:37;;;;;;;5.00;4.60;;;19.60;99.90;;;;;;5056276;28;20637;-73
2022/08/31 12:37:17;;;;;;;5.50;4.97;;;19.60;99.90;;;;;;5074701;28;20574;-70
2022/08/31 12:39:43;;;;;;;9.80;5.90;;;19.70;99.90;;;;;;5074200;28;20645;-71
2022/08/31 12:42:10;;;;;;;7.37;6.77;;;19.90;99.90;;;;;;5074031;28;20566;-71
2022/08/31 12:44:43;;;;;;;5.30;4.87;;;20.00;99.90;;;;;;5074148;28;20657;-71
2022/08/31 12:47:36;;;;;;;5.20;4.57;;;20.00;99.90;;;;;;5073535;28;20610;-71
2022/08/31 12:50:21;;;;;;;4.83;4.43;;;20.00;99.90;;;;;;5073802;28;21029;-71
2022/08/31 12:53:09;;;;;;;5.83;5.30;;;20.00;99.90;;;;;;5073434;28;20632;-71
2022/08/31 12:55:55;;;;;;;6.50;4.80;;;20.10;99.90;;;;;;5073603;28;20622;-71
2022/08/31 12:58:50;;;;;;;5.30;4.80;;;20.30;99.90;;;;;;5073636;28;20979;-71
2022/08/31 13:01:23;;;;;;;5.60;5.10;;;20.30;99.90;;;;;;5072852;28;20622;-71
2022/08/31 13:03:53;;;;;;;5.07;4.60;;;20.60;99.90;;;;;;5072640;28;20657;-71
2022/08/31 13:06:29;;;;;;;4.97;4.57;;;20.80;99.90;;;;;;5072628;28;20575;-71
2022/08/31 13:08:57;;;;;;;4.97;4.57;;;20.80;99.90;;;;;;5073115;28;20616;-71
2022/08/31 13:11:29;;;;;;;4.73;4.40;;;21.00;99.90;;;;;;5072677;28;20629;-71
2022/08/31 13:14:19;;;;;;;5.80;5.20;;;21.00;99.90;;;;;;5073487;28;20575;-71
2022/08/31 13:17:03;;;;;;;7.23;5.00;;;20.90;99.90;;;;;;5072726;28;20621;-71
2022/08/31 13:19:32;;;;;;;6.40;4.63;;;20.90;99.90;;;;;;5073021;28;21143;-71
2022/08/31 13:22:08;;;;;;;7.43;5.17;;;21.10;99.90;;;;;;5073222;28;20586;-71
2022/08/31 13:24:40;;;;;;;5.60;5.17;;;21.10;99.90;;;;;;5073496;28;20719;-71
2022/08/31 13:27:23;;;;;;;4.57;4.17;;;21.30;99.90;;;;;;5073298;28;20610;-71